Time;durP1;ratioP1;P1;durP2;ratioP2;P2;SDS_P1;SDS_P2;PMS_P1;PMS_P2;Temp;Humidity;BMP_temperature;BMP_pressure;BME280_temperature;BME280_humidity;BME280_pressure;Samples;Min_cycle;Max_cycle;Signal;HPM_P1;HPM_P2
2023/01/17 00:01:15;;;;;;;2.83;1.90;;;3.20;99.90;;;;;;5017572;28;20052;-82
2023/01/17 00:11:56;;;;;;;3.33;2.00;;;3.30;99.90;;;;;;5034839;28;20084;-81
2023/01/17 00:14:22;;;;;;;3.45;1.98;;;3.30;99.90;;;;;;5017194;28;20045;-82
2023/01/17 00:16:47;;;;;;;4.32;2.00;;;3.40;99.90;;;;;;5001077;28;20497;-82
2023/01/17 01:34:00;;;;;;;2.70;1.10;;;3.00;99.90;;;;;;5016143;28;20084;-81
2023/01/17 01:36:26;;;;;;;2.53;1.10;;;3.00;99.90;;;;;;5015481;28;20529;-81
2023/01/17 01:38:53;;;;;;;1.73;1.20;;;3.00;99.90;;;;;;4999987;28;20154;-82
2023/01/17 01:41:19;;;;;;;3.45;1.20;;;3.00;99.90;;;;;;4999555;28;20412;-83
2023/01/17 01:43:54;;;;;;;2.85;1.20;;;2.90;99.90;;;;;;5016050;28;20045;-83
2023/01/17 01:46:32;;;;;;;5.15;1.25;;;2.90;99.90;;;;;;5015976;28;20041;-82
2023/01/17 01:49:23;;;;;;;2.78;1.20;;;2.90;99.90;;;;;;5015999;28;20075;-83
2023/01/17 01:51:55;;;;;;;2.55;1.20;;;2.90;99.90;;;;;;5033594;28;20454;-83
2023/01/17 01:54:30;;;;;;;1.80;1.40;;;2.90;99.90;;;;;;4999633;28;20429;-82
2023/01/17 01:57:00;;;;;;;3.47;1.20;;;2.80;99.90;;;;;;5016072;28;20052;-83
2023/01/17 01:59:26;;;;;;;4.95;1.40;;;3.20;99.90;;;;;;4999453;28;20053;-83
2023/01/17 02:01:54;;;;;;;2.93;1.27;;;2.70;99.90;;;;;;5016064;28;20359;-81
2023/01/17 02:04:21;;;;;;;4.30;1.35;;;2.70;99.90;;;;;;5015791;28;20280;-82
2023/01/17 02:06:50;;;;;;;1.90;1.20;;;2.70;99.90;;;;;;5033154;28;20050;-82
2023/01/17 02:09:17;;;;;;;3.55;1.40;;;2.60;99.90;;;;;;5033882;28;20054;-81
2023/01/17 02:11:45;;;;;;;2.55;1.38;;;2.70;99.90;;;;;;5033083;28;20360;-81
2023/01/17 02:14:19;;;;;;;2.90;1.40;;;3.10;99.90;;;;;;5033158;28;20041;-82
2023/01/17 02:16:56;;;;;;;2.55;1.40;;;2.60;99.90;;;;;;5015608;28;20160;-82
2023/01/17 02:19:52;;;;;;;3.33;1.25;;;2.60;99.90;;;;;;5016431;28;20096;-81
2023/01/17 02:22:45;;;;;;;3.25;1.35;;;2.60;99.90;;;;;;5032875;28;20060;-81
2023/01/17 02:25:23;;;;;;;2.55;1.45;;;2.60;99.90;;;;;;5015436;28;20052;-82
2023/01/17 02:28:04;;;;;;;;;;;2.60;99.90;;;;;;4999456;28;20049;-81
2023/01/17 02:30:36;;;;;;;4.15;1.48;;;2.50;99.90;;;;;;5032971;28;19921;-82
2023/01/17 02:33:27;;;;;;;6.43;1.40;;;2.50;99.90;;;;;;5033148;28;20451;-82
2023/01/17 02:36:17;;;;;;;3.08;1.20;;;2.50;99.90;;;;;;5015188;28;20049;-81
2023/01/17 02:39:02;;;;;;;1.85;1.30;;;2.40;99.90;;;;;;5033248;28;20485;-81
2023/01/17 02:41:36;;;;;;;1.75;1.30;;;2.40;99.90;;;;;;5015626;28;20050;-82
2023/01/17 02:44:02;;;;;;;3.30;1.50;;;2.40;99.90;;;;;;5015401;28;20128;-82
2023/01/17 02:46:28;;;;;;;2.45;1.20;;;2.40;99.90;;;;;;5017116;28;20049;-81
2023/01/17 02:48:56;;;;;;;2.50;1.40;;;2.40;99.90;;;;;;5019568;28;20044;-82
2023/01/17 02:51:37;;;;;;;1.90;1.38;;;2.40;99.90;;;;;;5036374;28;20077;-81
2023/01/17 02:54:21;;;;;;;2.50;1.30;;;2.30;99.90;;;;;;5036603;28;20061;-81
2023/01/17 02:57:08;;;;;;;1.95;1.30;;;2.30;99.90;;;;;;5036120;28;20043;-81
2023/01/17 03:00:00;;;;;;;3.42;1.60;;;2.30;99.90;;;;;;5036777;28;20485;-82
2023/01/17 03:02:43;;;;;;;4.35;1.50;;;2.30;99.90;;;;;;5036508;28;20052;-81
2023/01/17 03:05:18;;;;;;;2.65;1.63;;;2.30;99.90;;;;;;5018643;28;20076;-80
2023/01/17 03:07:47;;;;;;;5.13;1.40;;;2.30;99.90;;;;;;5036194;28;20051;-82
2023/01/17 03:10:16;;;;;;;7.97;1.92;;;2.30;99.90;;;;;;5019214;28;20393;-80
2023/01/17 03:12:42;;;;;;;2.65;1.40;;;2.30;99.90;;;;;;5002484;28;20045;-81
2023/01/17 03:15:12;;;;;;;3.67;1.50;;;2.60;99.90;;;;;;5036048;28;20048;-82
2023/01/17 03:17:45;;;;;;;2.58;1.33;;;2.30;99.90;;;;;;5018134;28;20284;-81
2023/01/17 03:20:11;;;;;;;3.40;1.50;;;2.40;99.90;;;;;;5035909;28;20128;-82
2023/01/17 03:22:37;;;;;;;2.03;1.25;;;2.30;99.90;;;;;;5018345;28;20088;-82
2023/01/17 03:25:03;;;;;;;6.28;1.50;;;2.40;99.90;;;;;;5018332;28;20085;-82
2023/01/17 03:27:29;;;;;;;3.50;1.30;;;2.30;99.90;;;;;;5018423;28;20168;-81
2023/01/17 03:29:55;;;;;;;3.45;1.33;;;2.30;99.90;;;;;;5036354;28;20049;-82
2023/01/17 03:32:20;;;;;;;4.70;1.85;;;2.30;99.90;;;;;;5018471;28;20042;-82
2023/01/17 03:34:46;;;;;;;1.73;1.30;;;2.40;99.90;;;;;;5019379;28;20042;-81
2023/01/17 03:37:11;;;;;;;3.65;1.55;;;2.30;99.90;;;;;;5036037;28;20525;-82
2023/01/17 03:39:37;;;;;;;5.72;1.55;;;2.30;99.90;;;;;;5002466;28;20053;-81
2023/01/17 03:42:02;;;;;;;2.88;1.77;;;2.30;99.90;;;;;;5018391;28;20156;-82
2023/01/17 03:44:28;;;;;;;4.32;1.70;;;2.30;99.90;;;;;;5035338;28;20524;-82
2023/01/17 03:46:54;;;;;;;5.25;1.50;;;2.30;99.90;;;;;;5035346;28;20045;-82
2023/01/17 03:49:19;;;;;;;7.85;1.50;;;2.30;99.90;;;;;;5035079;28;20049;-82
2023/01/17 03:51:45;;;;;;;6.57;1.63;;;2.40;99.90;;;;;;5017810;28;20053;-82
2023/01/17 03:54:10;;;;;;;2.50;1.42;;;2.30;99.90;;;;;;5017741;28;20517;-82
2023/01/17 03:56:36;;;;;;;3.72;1.40;;;2.30;99.90;;;;;;5034756;28;20442;-83
2023/01/17 03:59:02;;;;;;;2.58;1.40;;;2.30;99.90;;;;;;5017629;28;20490;-83
2023/01/17 04:01:27;;;;;;;2.72;1.20;;;2.20;99.90;;;;;;5017813;28;20056;-83
2023/01/17 04:03:54;;;;;;;2.72;1.50;;;2.20;99.90;;;;;;5035176;28;20045;-82
2023/01/17 04:06:19;;;;;;;7.55;1.45;;;2.20;99.90;;;;;;5035397;28;20049;-83
2023/01/17 04:08:45;;;;;;;2.70;1.40;;;2.40;99.90;;;;;;5035158;28;20072;-83
2023/01/17 04:11:11;;;;;;;6.15;1.50;;;2.20;99.90;;;;;;5035171;28;20040;-82
2023/01/17 04:13:36;;;;;;;4.75;1.55;;;2.20;99.90;;;;;;5017286;28;20138;-82
2023/01/17 04:16:02;;;;;;;3.65;1.50;;;2.20;99.90;;;;;;5017188;28;20044;-82
2023/01/17 04:18:28;;;;;;;2.63;1.60;;;2.20;99.90;;;;;;5000998;28;20053;-83
2023/01/17 04:20:53;;;;;;;3.40;1.40;;;2.20;99.90;;;;;;5000970;28;20288;-83
2023/01/17 04:23:19;;;;;;;6.60;2.22;;;2.20;99.90;;;;;;5017278;28;20049;-83
2023/01/17 04:25:45;;;;;;;6.63;1.73;;;2.20;99.90;;;;;;5017044;28;20041;-82
2023/01/17 04:28:11;;;;;;;4.55;2.28;;;2.20;99.90;;;;;;5034708;28;20146;-82
2023/01/17 04:30:37;;;;;;;6.73;2.80;;;2.20;99.90;;;;;;5017024;28;20091;-82
2023/01/17 04:33:03;;;;;;;3.08;1.60;;;2.20;99.90;;;;;;5035174;28;20280;-83
2023/01/17 04:35:30;;;;;;;2.97;1.42;;;2.10;99.90;;;;;;5034679;28;20046;-82
2023/01/17 04:37:55;;;;;;;6.55;1.60;;;2.30;99.90;;;;;;5016849;28;20163;-83
2023/01/17 04:40:21;;;;;;;1.90;1.58;;;3.30;99.90;;;;;;5017146;28;20136;-82
2023/01/17 04:42:47;;;;;;;2.25;1.63;;;2.10;99.90;;;;;;5017104;28;20053;-81
2023/01/17 04:45:14;;;;;;;5.68;2.08;;;2.00;99.90;;;;;;5034266;28;20049;-81
2023/01/17 04:47:40;;;;;;;1.85;1.48;;;1.90;99.90;;;;;;5034201;28;20049;-82
2023/01/17 04:50:06;;;;;;;2.35;1.50;;;2.60;99.90;;;;;;5000256;28;20091;-81
2023/01/17 04:52:32;;;;;;;3.13;1.80;;;1.90;99.90;;;;;;5000780;28;20402;-83
2023/01/17 04:54:57;;;;;;;2.30;1.50;;;1.90;99.90;;;;;;5034103;28;20111;-82
2023/01/17 04:57:24;;;;;;;2.95;1.60;;;2.20;99.90;;;;;;5033923;28;20044;-83
2023/01/17 04:59:50;;;;;;;3.33;2.25;;;1.80;99.90;;;;;;5033954;28;20108;-83
2023/01/17 05:02:15;;;;;;;4.88;1.50;;;1.70;99.90;;;;;;5000189;28;20052;-82
2023/01/17 05:04:41;;;;;;;6.68;1.52;;;2.20;99.90;;;;;;5033908;28;20041;-83
2023/01/17 05:07:07;;;;;;;5.18;1.75;;;1.70;99.90;;;;;;5033822;28;20494;-83
2023/01/17 05:09:32;;;;;;;4.20;2.00;;;1.70;99.90;;;;;;5015831;28;20080;-83
2023/01/17 05:11:58;;;;;;;6.30;1.60;;;1.60;99.90;;;;;;5033741;28;20057;-82
2023/01/17 05:14:26;;;;;;;6.10;1.70;;;1.60;99.90;;;;;;4999988;28;20041;-83
2023/01/17 05:16:56;;;;;;;5.20;1.95;;;2.60;99.90;;;;;;5032434;28;20165;-83
2023/01/17 05:19:22;;;;;;;8.07;2.00;;;1.90;99.90;;;;;;5016260;28;20046;-82
2023/01/17 05:21:48;;;;;;;3.92;1.90;;;1.40;99.90;;;;;;5016029;28;20056;-81
2023/01/17 05:24:14;;;;;;;3.05;2.03;;;1.40;99.90;;;;;;5016121;28;20117;-82
2023/01/17 05:26:41;;;;;;;8.15;1.90;;;1.40;99.90;;;;;;5033750;28;20079;-82
2023/01/17 05:29:10;;;;;;;3.90;2.03;;;1.40;99.90;;;;;;5033695;28;20409;-82
2023/01/17 05:31:37;;;;;;;5.60;1.88;;;1.20;99.90;;;;;;5015885;28;20479;-82
2023/01/17 05:34:03;;;;;;;6.78;1.85;;;1.40;99.90;;;;;;5016569;28;20108;-82
2023/01/17 05:36:28;;;;;;;3.95;1.70;;;1.20;99.90;;;;;;5016086;28;20061;-82
2023/01/17 05:38:54;;;;;;;6.43;2.40;;;1.30;99.90;;;;;;5033764;28;20050;-82
2023/01/17 05:41:19;;;;;;;4.57;1.83;;;1.10;99.90;;;;;;5033475;28;20136;-82
2023/01/17 05:43:45;;;;;;;5.38;1.85;;;1.40;99.90;;;;;;5016066;28;20045;-82
2023/01/17 05:46:11;;;;;;;6.57;2.17;;;1.10;99.90;;;;;;4999641;28;20920;-82
2023/01/17 05:48:36;;;;;;;4.65;1.92;;;1.00;99.90;;;;;;4999620;28;20056;-87
2023/01/17 05:51:02;;;;;;;8.13;2.13;;;1.00;99.90;;;;;;4999571;28;20516;-82
2023/01/17 05:53:27;;;;;;;5.03;1.70;;;1.00;99.90;;;;;;5015966;28;20126;-86
2023/01/17 05:55:53;;;;;;;3.25;1.80;;;0.90;99.90;;;;;;5015721;28;20038;-84
2023/01/17 05:58:21;;;;;;;5.82;2.00;;;0.90;99.90;;;;;;5015833;28;20134;-83
2023/01/17 06:00:47;;;;;;;7.88;1.90;;;0.90;99.90;;;;;;5033192;28;20056;-82
2023/01/17 06:03:13;;;;;;;7.82;2.20;;;1.30;99.90;;;;;;5033284;28;20041;-84
2023/01/17 06:05:40;;;;;;;6.13;2.08;;;0.80;99.90;;;;;;4999484;28;20400;-84
2023/01/17 06:08:06;;;;;;;7.20;2.08;;;0.80;99.90;;;;;;5015706;28;20046;-83
2023/01/17 06:10:32;;;;;;;4.23;1.93;;;0.80;99.90;;;;;;5033175;28;20046;-84
2023/01/17 06:13:11;;;;;;;4.57;1.90;;;0.70;99.90;;;;;;5015778;28;20295;-83
2023/01/17 06:15:37;;;;;;;5.22;2.15;;;0.60;99.90;;;;;;4999261;28;20369;-83
2023/01/17 06:18:09;;;;;;;4.18;1.80;;;0.60;99.90;;;;;;5015740;28;20049;-83
2023/01/17 06:20:35;;;;;;;4.30;1.73;;;0.50;99.90;;;;;;5033647;28;20095;-84
2023/01/17 06:23:03;;;;;;;5.13;1.95;;;0.50;99.90;;;;;;5003142;28;20064;-84
2023/01/17 06:25:29;;;;;;;5.45;1.67;;;0.20;99.90;;;;;;5036862;28;20057;-84
2023/01/17 06:27:55;;;;;;;4.03;1.77;;;0.50;99.90;;;;;;5019292;28;20081;-84
2023/01/17 06:30:21;;;;;;;5.70;2.10;;;0.40;99.90;;;;;;5019880;28;20034;-84
2023/01/17 06:32:53;;;;;;;2.70;1.73;;;0.70;99.90;;;;;;5003484;28;20477;-83
2023/01/17 06:35:22;;;;;;;5.90;2.15;;;0.40;99.90;;;;;;5036833;28;20038;-84
2023/01/17 06:37:54;;;;;;;8.70;2.33;;;0.70;99.90;;;;;;5019074;28;20089;-84
2023/01/17 06:40:20;;;;;;;4.95;1.80;;;0.40;99.90;;;;;;5019192;28;20041;-84
2023/01/17 06:42:46;;;;;;;4.93;1.75;;;0.30;99.90;;;;;;5019343;28;20046;-84
2023/01/17 06:45:12;;;;;;;8.93;2.22;;;0.40;99.90;;;;;;5036572;28;20541;-85
2023/01/17 06:47:41;;;;;;;4.63;1.92;;;0.40;99.90;;;;;;5019241;28;20045;-82
2023/01/17 06:50:09;;;;;;;4.60;2.53;;;0.40;99.90;;;;;;5036486;28;20383;-81
2023/01/17 06:52:35;;;;;;;7.30;1.98;;;0.40;99.90;;;;;;5018241;28;20087;-84
2023/01/17 06:55:00;;;;;;;8.23;2.55;;;0.30;99.90;;;;;;5018683;28;20081;-83
2023/01/17 06:57:26;;;;;;;6.10;1.70;;;0.80;99.90;;;;;;5018671;28;20084;-82
2023/01/17 06:59:52;;;;;;;3.97;1.80;;;0.30;99.90;;;;;;5018416;28;20379;-81
2023/01/17 07:02:17;;;;;;;5.95;1.88;;;0.30;99.90;;;;;;5018683;28;20053;-81
2023/01/17 07:04:43;;;;;;;3.85;1.85;;;0.30;99.90;;;;;;5002025;28;20060;-81
2023/01/17 07:07:08;;;;;;;4.45;1.80;;;0.20;99.90;;;;;;5018898;28;20051;-83
2023/01/17 07:09:34;;;;;;;3.97;1.90;;;0.20;99.90;;;;;;5035935;28;20045;-83
2023/01/17 07:12:00;;;;;;;2.10;1.80;;;0.30;99.90;;;;;;5036038;28;20111;-80
2023/01/17 07:14:29;;;;;;;5.93;2.03;;;0.30;99.90;;;;;;5036118;28;20394;-80
2023/01/17 07:16:56;;;;;;;11.45;2.40;;;0.30;99.90;;;;;;5035818;28;20128;-79
2023/01/17 07:19:22;;;;;;;5.97;2.93;;;1.20;99.90;;;;;;5018298;28;20100;-81
2023/01/17 07:21:54;;;;;;;6.32;2.58;;;0.40;99.90;;;;;;5035866;28;20287;-81
2023/01/17 07:24:20;;;;;;;6.30;2.22;;;0.40;99.90;;;;;;5018054;28;20049;-82
2023/01/17 07:26:50;;;;;;;5.73;1.90;;;1.10;99.90;;;;;;5002114;28;20049;-81
2023/01/17 07:29:16;;;;;;;2.95;1.73;;;0.30;99.90;;;;;;5035570;28;20287;-81
2023/01/17 07:31:42;;;;;;;9.27;1.90;;;0.60;99.90;;;;;;5001721;28;20045;-82
2023/01/17 07:34:07;;;;;;;6.35;1.77;;;0.30;99.90;;;;;;5017781;28;20042;-82
2023/01/17 07:36:33;;;;;;;9.70;2.25;;;0.30;99.90;;;;;;5035340;28;20049;-82
2023/01/17 07:38:59;;;;;;;4.75;2.00;;;;;;;;;;5017976;28;20049;-80
2023/01/17 07:41:25;;;;;;;2.85;1.80;;;0.30;99.90;;;;;;5018103;28;20482;-79
2023/01/17 07:43:50;;;;;;;5.95;1.73;;;0.30;99.90;;;;;;5035264;28;20052;-80
2023/01/17 07:46:16;;;;;;;7.32;2.33;;;0.30;99.90;;;;;;5035447;28;20125;-81
2023/01/17 07:48:42;;;;;;;6.55;1.90;;;0.00;99.90;;;;;;5035673;28;20053;-82
2023/01/17 07:51:08;;;;;;;10.75;2.05;;;1.60;99.90;;;;;;5017958;28;20071;-82
2023/01/17 07:53:35;;;;;;;6.97;2.28;;;0.30;99.90;;;;;;5017997;28;20053;-82
2023/01/17 07:56:03;;;;;;;1.95;1.50;;;0.80;99.90;;;;;;5017641;28;20482;-78
2023/01/17 07:58:28;;;;;;;9.15;1.88;;;0.30;99.90;;;;;;5035493;28;20053;-81
2023/01/17 08:00:59;;;;;;;5.75;1.70;;;0.50;99.90;;;;;;5017635;28;20429;-80
2023/01/17 08:03:25;;;;;;;6.80;1.65;;;0.30;99.90;;;;;;5035606;28;20103;-79
2023/01/17 08:05:56;;;;;;;8.52;1.73;;;0.20;99.90;;;;;;5019002;28;20076;-81
2023/01/17 08:08:22;;;;;;;5.55;1.77;;;0.40;99.90;;;;;;5035643;28;20123;-81
2023/01/17 08:10:48;;;;;;;5.15;1.70;;;1.20;99.90;;;;;;5001960;28;20105;-80
2023/01/17 08:13:14;;;;;;;5.77;1.87;;;0.20;99.90;;;;;;5035308;28;20088;-81
2023/01/17 08:15:39;;;;;;;5.03;1.90;;;0.70;99.90;;;;;;5035315;28;20092;-81
2023/01/17 08:18:05;;;;;;;6.43;1.75;;;0.30;99.90;;;;;;5035540;28;20091;-81
2023/01/17 08:20:31;;;;;;;5.60;1.75;;;0.20;99.90;;;;;;5018250;28;20049;-80
2023/01/17 08:22:56;;;;;;;11.50;2.10;;;0.00;99.90;;;;;;5036328;28;20416;-81
2023/01/17 08:25:23;;;;;;;3.63;1.63;;;0.80;99.90;;;;;;5017634;28;20041;-82
2023/01/17 08:27:49;;;;;;;4.47;2.00;;;0.20;99.90;;;;;;5035244;28;20124;-83
2023/01/17 08:30:15;;;;;;;3.20;1.90;;;0.70;99.90;;;;;;5034820;28;20049;-80
2023/01/17 08:32:41;;;;;;;3.78;1.85;;;0.20;99.90;;;;;;5034523;28;20627;-81
2023/01/17 08:35:07;;;;;;;3.88;2.00;;;0.20;99.90;;;;;;5017111;28;20037;-85
2023/01/17 08:37:33;;;;;;;8.00;1.90;;;0.20;99.90;;;;;;5016594;28;20085;-81
2023/01/17 08:39:59;;;;;;;5.43;2.38;;;0.50;99.90;;;;;;5034434;28;20053;-82
2023/01/17 08:42:25;;;;;;;7.30;2.30;;;0.20;99.90;;;;;;5034439;28;20105;-81
2023/01/17 08:44:50;;;;;;;5.70;3.35;;;0.20;99.90;;;;;;5033972;28;20052;-82
2023/01/17 08:47:16;;;;;;;7.55;2.30;;;0.30;99.90;;;;;;5017271;28;20051;-80
2023/01/17 08:49:42;;;;;;;11.77;2.63;;;1.10;99.90;;;;;;5034742;28;20505;-82
2023/01/17 08:52:08;;;;;;;4.30;2.30;;;0.50;99.90;;;;;;5034355;28;20072;-84
2023/01/17 08:54:34;;;;;;;7.88;2.35;;;1.20;99.90;;;;;;5017263;28;20045;-82
2023/01/17 08:57:02;;;;;;;6.20;2.97;;;0.60;99.90;;;;;;5034599;28;20041;-82
2023/01/17 08:59:27;;;;;;;4.65;2.80;;;1.30;99.90;;;;;;5017284;28;20049;-84
2023/01/17 09:01:54;;;;;;;10.32;3.58;;;0.80;99.90;;;;;;5016673;28;20507;-81
2023/01/17 09:04:19;;;;;;;5.55;2.35;;;0.90;99.90;;;;;;5016708;28;20046;-82
2023/01/17 09:06:47;;;;;;;8.32;2.80;;;0.70;99.90;;;;;;5000233;28;20044;-85
2023/01/17 09:09:14;;;;;;;8.07;2.45;;;0.70;99.90;;;;;;5016440;28;20401;-84
2023/01/17 09:11:40;;;;;;;5.68;2.60;;;1.30;99.90;;;;;;5033826;28;20084;-83
2023/01/17 09:14:06;;;;;;;3.95;2.47;;;0.80;99.90;;;;;;5016156;28;20122;-81
2023/01/17 09:16:31;;;;;;;4.15;2.55;;;0.80;99.90;;;;;;4999888;28;20037;-84
2023/01/17 09:18:58;;;;;;;7.10;2.65;;;1.10;99.90;;;;;;5016117;28;20460;-82
2023/01/17 09:21:25;;;;;;;4.80;2.33;;;1.70;99.90;;;;;;5016020;28;20049;-83
2023/01/17 09:23:51;;;;;;;5.55;2.42;;;0.90;99.90;;;;;;5034104;28;20068;-83
2023/01/17 09:26:26;;;;;;;6.50;2.60;;;1.10;99.90;;;;;;5033615;28;20397;-85
2023/01/17 09:28:52;;;;;;;8.38;3.00;;;1.10;99.90;;;;;;5033721;28;20037;-83
2023/01/17 09:31:20;;;;;;;7.78;2.63;;;1.20;99.90;;;;;;5016423;28;20111;-83
2023/01/17 09:33:47;;;;;;;6.25;3.30;;;1.20;99.90;;;;;;5015961;28;20037;-82
2023/01/17 09:36:13;;;;;;;7.32;3.13;;;1.20;99.90;;;;;;5015582;28;20152;-83
2023/01/17 09:38:39;;;;;;;5.45;3.17;;;1.20;99.90;;;;;;5016051;28;20115;-82
2023/01/17 09:41:29;;;;;;;6.30;2.50;;;1.40;99.90;;;;;;5016165;28;20056;-81
2023/01/17 09:44:13;;;;;;;8.23;3.28;;;1.40;99.90;;;;;;5014419;28;20054;-84
2023/01/17 09:46:43;;;;;;;3.63;2.67;;;1.40;99.90;;;;;;5033933;28;20107;-82
2023/01/17 09:49:16;;;;;;;6.93;2.75;;;1.50;99.90;;;;;;5016537;28;20099;-82
2023/01/17 09:51:42;;;;;;;4.97;2.97;;;1.40;99.90;;;;;;5016054;28;20128;-82
2023/01/17 09:54:21;;;;;;;8.80;2.92;;;1.50;99.90;;;;;;5015823;28;20136;-82
2023/01/17 09:57:00;;;;;;;4.72;2.92;;;1.50;99.90;;;;;;5003565;28;20041;-83
2023/01/17 09:59:59;;;;;;;12.38;3.50;;;1.50;99.90;;;;;;5019978;28;20132;-83
2023/01/17 10:03:12;;;;;;;8.73;3.15;;;1.50;99.90;;;;;;5037428;28;20543;-85
2023/01/17 10:05:44;;;;;;;4.18;2.75;;;1.60;99.90;;;;;;5018783;28;20045;-83
2023/01/17 10:08:24;;;;;;;8.95;3.42;;;1.70;99.90;;;;;;5020232;28;20042;-83
2023/01/17 10:11:11;;;;;;;5.53;3.00;;;1.70;99.90;;;;;;5003412;28;20052;-83
2023/01/17 10:13:52;;;;;;;8.98;3.42;;;1.70;99.90;;;;;;5003353;28;20049;-85
2023/01/17 10:16:53;;;;;;;6.05;2.75;;;1.70;99.90;;;;;;5019622;28;20095;-83
2023/01/17 10:19:27;;;;;;;9.32;3.03;;;1.80;99.90;;;;;;4990722;28;20382;-84
2023/01/17 10:22:09;;;;;;;6.95;3.40;;;1.80;99.90;;;;;;5019774;28;20478;-82
2023/01/17 10:24:50;;;;;;;8.27;3.20;;;1.90;99.90;;;;;;5020002;28;20506;-82
2023/01/17 10:27:39;;;;;;;9.38;3.60;;;1.90;99.90;;;;;;5019948;28;20048;-84
2023/01/17 10:30:35;;;;;;;4.75;3.00;;;2.00;99.90;;;;;;5014146;28;20041;-84
2023/01/17 10:33:25;;;;;;;6.60;3.58;;;2.00;99.90;;;;;;5036067;28;20057;-85
2023/01/17 10:36:06;;;;;;;5.55;3.20;;;2.00;99.90;;;;;;5036453;28;20041;-81
2023/01/17 10:38:35;;;;;;;5.82;3.35;;;2.00;99.90;;;;;;5019124;28;20048;-83
2023/01/17 10:41:24;;;;;;;7.18;3.45;;;2.10;99.90;;;;;;5019160;28;20053;-85
2023/01/17 10:44:17;;;;;;;9.63;4.03;;;2.10;99.90;;;;;;5019603;28;20140;-83
2023/01/17 10:47:03;;;;;;;7.32;3.13;;;2.20;99.90;;;;;;5036789;28;20046;-83
2023/01/17 10:49:29;;;;;;;11.85;3.53;;;2.20;99.90;;;;;;5037437;28;20057;-82
2023/01/17 10:52:16;;;;;;;4.88;2.67;;;2.30;99.90;;;;;;5037071;28;20104;-84
2023/01/17 10:55:07;;;;;;;6.82;3.45;;;2.40;99.90;;;;;;5019044;28;20050;-84
2023/01/17 10:57:37;;;;;;;6.15;3.42;;;2.50;99.90;;;;;;5002716;28;20450;-84
2023/01/17 11:00:40;;;;;;;6.80;2.92;;;3.80;99.90;;;;;;5019161;28;20124;-84
2023/01/17 11:03:09;;;;;;;9.35;3.35;;;2.60;99.90;;;;;;5036209;28;20458;-84
2023/01/17 11:05:35;;;;;;;7.18;3.30;;;2.70;99.90;;;;;;5036127;28;20050;-82
2023/01/17 11:08:05;;;;;;;5.05;2.83;;;2.80;99.90;;;;;;5018039;28;20037;-84
2023/01/17 11:10:38;;;;;;;5.32;2.95;;;2.80;99.90;;;;;;5019227;28;20042;-82
2023/01/17 11:13:18;;;;;;;7.88;3.00;;;2.80;99.90;;;;;;5018504;28;20049;-83
2023/01/17 11:15:51;;;;;;;6.07;2.65;;;2.80;99.90;;;;;;5018394;28;20048;-83
2023/01/17 11:18:21;;;;;;;10.98;2.90;;;2.80;99.90;;;;;;5018809;28;20045;-82
2023/01/17 11:20:48;;;;;;;6.65;3.40;;;2.90;99.90;;;;;;5018640;28;20068;-82
2023/01/17 11:23:30;;;;;;;14.23;3.25;;;2.90;99.90;;;;;;5018752;28;20478;-80
2023/01/17 11:26:09;;;;;;;7.90;3.35;;;3.00;99.90;;;;;;5018577;28;20042;-82
2023/01/17 11:28:36;;;;;;;10.73;2.80;;;4.20;99.90;;;;;;5019136;28;20033;-79
2023/01/17 11:31:22;;;;;;;5.82;3.28;;;3.10;99.90;;;;;;5018279;28;20042;-81
2023/01/17 11:33:55;;;;;;;8.27;2.80;;;3.10;99.90;;;;;;5035415;28;20520;-82
2023/01/17 11:36:27;;;;;;;12.75;2.80;;;3.20;99.90;;;;;;5001649;28;20061;-82
2023/01/17 11:39:16;;;;;;;5.05;2.63;;;3.20;99.90;;;;;;5035863;28;20042;-81
2023/01/17 11:41:43;;;;;;;7.25;2.88;;;3.30;99.90;;;;;;5002396;28;20049;-80
2023/01/17 11:44:33;;;;;;;5.28;2.83;;;3.30;99.90;;;;;;5035501;28;20057;-78
2023/01/17 11:47:18;;;;;;;7.65;2.80;;;3.40;99.90;;;;;;5018197;28;20124;-80
2023/01/17 11:49:48;;;;;;;5.75;2.42;;;3.40;99.90;;;;;;5035284;28;20128;-79
2023/01/17 11:52:25;;;;;;;13.40;3.50;;;3.50;99.90;;;;;;5035232;28;20053;-85
2023/01/17 11:54:52;;;;;;;3.53;2.30;;;3.50;99.90;;;;;;5017740;28;20247;-82
2023/01/17 11:57:33;;;;;;;11.85;3.22;;;3.60;99.90;;;;;;5035129;28;20057;-80
2023/01/17 12:00:02;;;;;;;5.10;2.50;;;3.70;99.90;;;;;;5035208;28;20088;-80
2023/01/17 12:03:02;;;;;;;7.28;2.72;;;3.80;99.90;;;;;;5000944;28;20096;-81
2023/01/17 12:05:53;;;;;;;8.00;2.78;;;3.90;99.90;;;;;;5017382;28;20049;-81
2023/01/17 12:08:34;;;;;;;6.28;2.20;;;3.90;99.90;;;;;;5035007;28;20045;-79
2023/01/17 12:11:13;;;;;;;4.57;2.78;;;3.90;99.90;;;;;;5035287;28;20375;-80
2023/01/17 12:14:01;;;;;;;5.68;2.42;;;3.80;99.90;;;;;;5034915;28;20473;-81
2023/01/17 12:16:45;;;;;;;6.70;2.33;;;3.80;99.90;;;;;;5035219;28;20060;-81
2023/01/17 12:19:22;;;;;;;4.97;2.58;;;3.80;99.90;;;;;;5000120;28;20104;-83
2023/01/17 12:22:10;;;;;;;3.77;2.13;;;3.90;99.90;;;;;;5035151;28;20163;-80
2023/01/17 12:25:01;;;;;;;3.90;2.40;;;3.90;99.90;;;;;;5035025;28;20050;-80
2023/01/17 12:27:30;;;;;;;6.10;2.40;;;3.90;99.90;;;;;;5017449;28;20052;-80
2023/01/17 12:30:36;;;;;;;7.57;2.60;;;3.90;99.90;;;;;;5030892;28;20363;-81
2023/01/17 12:33:15;;;;;;;4.28;2.47;;;3.90;99.90;;;;;;5033099;28;20054;-81
2023/01/17 12:35:47;;;;;;;8.90;2.40;;;4.00;99.90;;;;;;5016299;28;20622;-82
2023/01/17 12:38:27;;;;;;;9.65;2.38;;;4.00;99.90;;;;;;4999986;28;20068;-80
2023/01/17 12:41:01;;;;;;;4.55;2.00;;;3.90;99.90;;;;;;5034100;28;20494;-79
2023/01/17 12:43:38;;;;;;;8.00;2.22;;;4.00;99.90;;;;;;5017166;28;20046;-80
2023/01/17 12:46:19;;;;;;;6.38;2.22;;;4.00;99.90;;;;;;5016722;28;20133;-80
2023/01/17 12:48:51;;;;;;;5.93;2.08;;;4.00;99.90;;;;;;5016857;28;20041;-82
2023/01/17 12:51:27;;;;;;;2.92;2.10;;;4.00;99.90;;;;;;5034228;28;20077;-81
2023/01/17 12:54:14;;;;;;;4.97;2.30;;;4.00;99.90;;;;;;5016623;28;20132;-81
2023/01/17 12:56:47;;;;;;;3.28;1.90;;;4.00;99.90;;;;;;5033599;28;20057;-84
2023/01/17 12:59:25;;;;;;;10.52;2.80;;;4.10;99.90;;;;;;5016838;28;20128;-81
2023/01/17 13:01:56;;;;;;;7.13;2.13;;;4.10;99.90;;;;;;5016594;28;20132;-80
2023/01/17 13:04:48;;;;;;;8.45;2.13;;;4.10;99.90;;;;;;5033412;28;20513;-80
2023/01/17 13:07:32;;;;;;;9.68;2.30;;;4.00;99.90;;;;;;5017046;28;20425;-80
2023/01/17 13:10:12;;;;;;;5.13;2.25;;;4.00;99.90;;;;;;5033521;28;20045;-83
2023/01/17 13:12:38;;;;;;;3.00;1.92;;;4.50;99.90;;;;;;5016068;28;20144;-82
2023/01/17 13:15:17;;;;;;;7.10;2.27;;;4.00;99.90;;;;;;5015752;28;20511;-81
2023/01/17 13:18:21;;;;;;;3.63;2.20;;;4.00;99.90;;;;;;5015764;28;20300;-82
2023/01/17 13:20:58;;;;;;;6.38;2.03;;;4.00;99.90;;;;;;4999467;28;20612;-82
2023/01/17 13:23:57;;;;;;;3.55;2.00;;;4.00;99.90;;;;;;5032617;28;20080;-84
2023/01/17 13:26:35;;;;;;;4.68;2.00;;;4.00;99.90;;;;;;5000018;28;20045;-81
2023/01/17 13:29:25;;;;;;;7.38;2.05;;;3.90;99.90;;;;;;5015528;28;20049;-82
2023/01/17 13:32:26;;;;;;;7.38;2.10;;;3.90;99.90;;;;;;5015245;28;20107;-81
2023/01/17 13:35:18;;;;;;;4.68;2.10;;;3.90;99.90;;;;;;5033381;28;20056;-82
2023/01/17 13:38:02;;;;;;;4.38;2.00;;;3.80;99.90;;;;;;5010962;28;20398;-81
2023/01/17 13:40:37;;;;;;;8.23;2.08;;;3.80;99.90;;;;;;4996217;28;20498;-83
2023/01/17 13:43:18;;;;;;;4.15;2.30;;;3.80;99.90;;;;;;5013420;28;20516;-82
2023/01/17 13:45:52;;;;;;;6.05;2.20;;;3.90;99.90;;;;;;4980179;28;20478;-81
2023/01/17 13:48:17;;;;;;;4.05;2.05;;;3.80;99.90;;;;;;4995781;28;20494;-81
2023/01/17 13:50:55;;;;;;;4.10;1.92;;;3.70;99.90;;;;;;4979727;28;20101;-83
2023/01/17 13:53:33;;;;;;;4.47;1.80;;;3.70;99.90;;;;;;4995981;28;20046;-82
2023/01/17 13:56:24;;;;;;;7.45;2.10;;;3.70;99.90;;;;;;4996112;28;20073;-82
2023/01/17 13:58:53;;;;;;;3.25;2.10;;;3.70;99.90;;;;;;5013188;28;20494;-80
2023/01/17 14:01:22;;;;;;;4.47;2.22;;;3.70;99.90;;;;;;4995860;28;20049;-83
2023/01/17 14:03:53;;;;;;;5.78;1.90;;;3.60;99.90;;;;;;5013218;28;20140;-81
2023/01/17 14:06:43;;;;;;;4.82;2.08;;;3.60;99.90;;;;;;4979737;28;20048;-82
2023/01/17 14:09:09;;;;;;;4.72;2.45;;;3.60;99.90;;;;;;5013300;28;20038;-80
2023/01/17 14:11:35;;;;;;;5.10;2.10;;;3.60;99.90;;;;;;4995593;28;20049;-80
2023/01/17 14:14:38;;;;;;;4.00;1.95;;;3.50;99.90;;;;;;5013222;28;20048;-84
2023/01/17 14:17:20;;;;;;;5.82;2.10;;;3.50;99.90;;;;;;4979411;28;20041;-81
2023/01/17 14:19:51;;;;;;;3.90;2.20;;;3.50;99.90;;;;;;4995761;28;20457;-83
2023/01/17 14:22:17;;;;;;;6.70;2.20;;;3.40;99.90;;;;;;5013181;28;20042;-81
2023/01/17 14:25:10;;;;;;;5.50;1.92;;;3.40;99.90;;;;;;4995985;28;20144;-81
2023/01/17 14:27:43;;;;;;;5.72;1.80;;;3.30;99.90;;;;;;4996234;28;20049;-80
2023/01/17 14:30:16;;;;;;;23.48;2.45;;;3.30;99.90;;;;;;4996517;28;20042;-82
2023/01/17 14:32:59;;;;;;;6.53;1.90;;;3.30;99.90;;;;;;5013550;28;20057;-83
2023/01/17 14:35:32;;;;;;;4.40;2.20;;;3.30;99.90;;;;;;4980030;28;20084;-81
2023/01/17 14:38:02;;;;;;;3.50;1.88;;;3.30;99.90;;;;;;5012894;28;20065;-83
2023/01/17 14:40:30;;;;;;;3.40;1.80;;;3.20;99.90;;;;;;5015514;28;20049;-83
2023/01/17 14:43:11;;;;;;;4.20;1.90;;;3.20;99.90;;;;;;5018090;28;20041;-83
2023/01/17 14:45:38;;;;;;;5.00;2.20;;;3.20;99.90;;;;;;5036452;28;20099;-82
2023/01/17 14:48:09;;;;;;;5.65;2.67;;;3.10;99.90;;;;;;5019065;28;20037;-83